Bangkok Bridge — 3FTZ8 — position and weather

sailwx.info

Track history (hours):
 
Tides and Currents Weather Stations Pressure Air Temp Water Temp Dewpoint Dewpoint Depression Visibility Wind Speed Wind Dir Waves Ship Positions

Bangkok Bridge

Last reported at 2016-Jul-02 03:28 UTC. Time now 2016-Jul-02 07:35 UTC.
Position N 33°45' W 118°12'.

Length 267 m; draft 12.2 m.

Type: Ship (hazmat cat A). MMSI: 353368000.

Date/timePositionNaut miles runAvg speedWind from/ knotsBaromVisibWave heightAir tempDewpointWater temp
2016-Jul-02 03:28N 33°45' W 118°12'0 0.0
2016-Jul-02 02:10N 33°45' W 118°12'0 0.1
2016-Jul-02 01:28N 33°45' W 118°12'0 0.0
2016-Jul-02 00:22N 33°45' W 118°12'0 0.0
2016-Jul-01 22:10N 33°45' W 118°12'0 0.0
2016-Jul-01 15:22N 33°45' W 118°12'0 0.0
2016-Jul-01 13:16N 33°45' W 118°12'0 0.1
2016-Jul-01 12:22N 33°45' W 118°12'0 0.0
2016-Jul-01 11:10N 33°45' W 118°12'0 0.1
2016-Jul-01 10:28N 33°45' W 118°12'0 0.1
2016-Jul-01 09:28N 33°45' W 118°12'0 0.0
2016-Jul-01 08:28N 33°45' W 118°12'0 0.0
2016-Jul-01 07:28N 33°45' W 118°12'0 0.0
2016-Jul-01 04:28N 33°45' W 118°12'0 0.1
2016-Jul-01 03:28N 33°45' W 118°12'0 0.0
2016-Jul-01 00:28N 33°45' W 118°12'0 0.0
2016-Jun-30 23:22N 33°45' W 118°12'0 0.1
2016-Jun-30 22:28N 33°45' W 118°12'3 3.2
2016-Jun-30 21:32N 33°42' W 118°11'7 6.7
2016-Jun-30 20:33N 33°36' W 118°15'1010.4
2016-Jun-30 19:33N 33°39' W 118°27'1110.8
2016-Jun-30 18:33N 33°45' W 118°39'1111.0
2016-Jun-30 17:33N 33°50' W 118°50'1111.0
2016-Jun-30 16:33N 33°56' W 119°02'1111.2
2016-Jun-30 15:33N 34°01' W 119°14'10 9.7
2016-Jun-30 14:31N 34°04' W 119°25'9 9.1
2016-Jun-30 13:31N 34°07' W 119°36'9 9.2
2016-Jun-30 12:33N 34°09' W 119°46'20 9.2
2016-Jun-30 10:24N 34°14' W 120°09'8 9.2
2016-Jun-30 09:33N 34°17' W 120°18'9 9.1
2016-Jun-30 08:33N 34°19' W 120°29'20 9.2
2016-Jun-30 06:20N 34°24' W 120°53'910.4
2016-Jun-30 05:27N 34°24' W 121°04'1112.0
2016-Jun-30 04:33N 34°24' W 121°17'1212.2
2016-Jun-30 03:33N 34°24' W 121°32'1212.1
2016-Jun-30 02:33N 34°24' W 121°46'1212.0
2016-Jun-30 01:32N 34°25' W 122°01'1212.0
2016-Jun-30 00:33N 34°25' W 122°15'2412.0
2016-Jun-29 22:31N 34°25' W 122°45'1211.9
2016-Jun-29 21:33N 34°25' W 122°59'1212.0
2016-Jun-29 20:33N 34°25' W 123°13'1312.1
2016-Jun-29 19:31N 34°25' W 123°28'1212.1
2016-Jun-29 18:33N 34°25' W 123°43'1211.9
2016-Jun-29 17:33N 34°25' W 123°57'1212.0
2016-Jun-29 16:33N 34°25' W 124°12'1212.3
2016-Jun-29 15:33N 34°25' W 124°27'1212.0
2016-Jun-29 14:33N 34°25' W 124°41'1212.2
2016-Jun-29 13:33N 34°25' W 124°56'1212.0
2016-Jun-29 12:33N 34°25' W 125°10'1414.3
2016-Jun-29 11:33N 34°31' W 125°26'1616.2
2016-Jun-29 10:33N 34°40' W 125°42'1616.2
2016-Jun-29 09:33N 34°50' W 125°58'1616.3
2016-Jun-29 08:33N 34°59' W 126°14'1716.4
2016-Jun-29 07:33N 35°09' W 126°30'1916.5
2016-Jun-29 06:24N 35°20' W 126°49'1416.6
2016-Jun-29 05:33N 35°29' W 127°03'1918.9
2016-Jun-29 04:33N 35°40' W 127°22'2019.1
2016-Jun-29 03:32N 35°51' W 127°41'10118.8
2016-Jun-28 22:09N 36°51' W 129°23'14618.6
2016-Jun-28 14:18N 38°11' W 131°57'1418.8
2016-Jun-28 13:33N 38°19' W 132°11'2118.7
2016-Jun-28 12:27N 38°30' W 132°34'1818.5
2016-Jun-28 11:29N 38°38' W 132°53'4018.9
2016-Jun-28 09:24N 38°60' W 133°36'  
Track history (hours):
 
Tides and Currents Weather Stations Pressure Air Temp Water Temp Dewpoint Dewpoint Depression Visibility Wind Speed Wind Dir Waves Ship Positions

Bangkok Bridge

Last reported at 2016-Jul-02 03:28 UTC. Time now 2016-Jul-02 07:35 UTC.
Position N 33°45' W 118°12'.

Length 267 m; draft 12.2 m.

Type: Ship (hazmat cat A). MMSI: 353368000.

Date/timePositionNaut miles runAvg speedWind from/ knotsBaromVisibWave heightAir tempDewpointWater temp
2016-Jul-02 03:28N 33°45' W 118°12'0 0.0
2016-Jul-02 02:10N 33°45' W 118°12'0 0.1
2016-Jul-02 01:28N 33°45' W 118°12'0 0.0
2016-Jul-02 00:22N 33°45' W 118°12'0 0.0
2016-Jul-01 22:10N 33°45' W 118°12'0 0.0
2016-Jul-01 15:22N 33°45' W 118°12'0 0.0
2016-Jul-01 13:16N 33°45' W 118°12'0 0.1
2016-Jul-01 12:22N 33°45' W 118°12'0 0.0
2016-Jul-01 11:10N 33°45' W 118°12'0 0.1
2016-Jul-01 10:28N 33°45' W 118°12'0 0.1
2016-Jul-01 09:28N 33°45' W 118°12'0 0.0
2016-Jul-01 08:28N 33°45' W 118°12'0 0.0
2016-Jul-01 07:28N 33°45' W 118°12'0 0.0
2016-Jul-01 04:28N 33°45' W 118°12'0 0.1
2016-Jul-01 03:28N 33°45' W 118°12'0 0.0
2016-Jul-01 00:28N 33°45' W 118°12'0 0.0
2016-Jun-30 23:22N 33°45' W 118°12'0 0.1
2016-Jun-30 22:28N 33°45' W 118°12'3 3.2
2016-Jun-30 21:32N 33°42' W 118°11'7 6.7
2016-Jun-30 20:33N 33°36' W 118°15'1010.4
2016-Jun-30 19:33N 33°39' W 118°27'1110.8
2016-Jun-30 18:33N 33°45' W 118°39'1111.0
2016-Jun-30 17:33N 33°50' W 118°50'1111.0
2016-Jun-30 16:33N 33°56' W 119°02'1111.2
2016-Jun-30 15:33N 34°01' W 119°14'10 9.7
2016-Jun-30 14:31N 34°04' W 119°25'9 9.1
2016-Jun-30 13:31N 34°07' W 119°36'9 9.2
2016-Jun-30 12:33N 34°09' W 119°46'20 9.2
2016-Jun-30 10:24N 34°14' W 120°09'8 9.2
2016-Jun-30 09:33N 34°17' W 120°18'9 9.1
2016-Jun-30 08:33N 34°19' W 120°29'20 9.2
2016-Jun-30 06:20N 34°24' W 120°53'910.4
2016-Jun-30 05:27N 34°24' W 121°04'1112.0
2016-Jun-30 04:33N 34°24' W 121°17'1212.2
2016-Jun-30 03:33N 34°24' W 121°32'1212.1
2016-Jun-30 02:33N 34°24' W 121°46'1212.0
2016-Jun-30 01:32N 34°25' W 122°01'1212.0
2016-Jun-30 00:33N 34°25' W 122°15'2412.0
2016-Jun-29 22:31N 34°25' W 122°45'1211.9
2016-Jun-29 21:33N 34°25' W 122°59'1212.0
2016-Jun-29 20:33N 34°25' W 123°13'1312.1
2016-Jun-29 19:31N 34°25' W 123°28'1212.1
2016-Jun-29 18:33N 34°25' W 123°43'1211.9
2016-Jun-29 17:33N 34°25' W 123°57'1212.0
2016-Jun-29 16:33N 34°25' W 124°12'1212.3
2016-Jun-29 15:33N 34°25' W 124°27'1212.0
2016-Jun-29 14:33N 34°25' W 124°41'1212.2
2016-Jun-29 13:33N 34°25' W 124°56'1212.0
2016-Jun-29 12:33N 34°25' W 125°10'1414.3
2016-Jun-29 11:33N 34°31' W 125°26'1616.2
2016-Jun-29 10:33N 34°40' W 125°42'1616.2
2016-Jun-29 09:33N 34°50' W 125°58'1616.3
2016-Jun-29 08:33N 34°59' W 126°14'1716.4
2016-Jun-29 07:33N 35°09' W 126°30'1916.5
2016-Jun-29 06:24N 35°20' W 126°49'1416.6
2016-Jun-29 05:33N 35°29' W 127°03'1918.9
2016-Jun-29 04:33N 35°40' W 127°22'2019.1
2016-Jun-29 03:32N 35°51' W 127°41'10118.8
2016-Jun-28 22:09N 36°51' W 129°23'14618.6
2016-Jun-28 14:18N 38°11' W 131°57'1418.8
2016-Jun-28 13:33N 38°19' W 132°11'2118.7
2016-Jun-28 12:27N 38°30' W 132°34'1818.5
2016-Jun-28 11:29N 38°38' W 132°53'4018.9
2016-Jun-28 09:24N 38°60' W 133°36'  

Dump ship's entire track history